Time;durP1;ratioP1;P1;durP2;ratioP2;P2;SDS_P1;SDS_P2;PMS_P1;PMS_P2;Temp;Humidity;BMP_temperature;BMP_pressure;BME280_temperature;BME280_humidity;BME280_pressure;Samples;Min_cycle;Max_cycle;Signal;HPM_P1;HPM_P2
2022/03/11 00:01:55;;;;;;;32.67;17.33;;;;;;;;;;764081;184;627912;-65
2022/03/11 00:04:21;;;;;;;37.50;18.30;;;;;;;;;;755224;186;618643;-66
2022/03/11 00:06:47;;;;;;;32.40;17.20;;;;;;;;;;753118;184;617242;-67
2022/03/11 00:09:13;;;;;;;32.63;15.07;;;;;;;;;;751230;186;628944;-67
2022/03/11 00:11:39;;;;;;;36.93;17.97;;;;;;;;;;750279;185;830623;-67
2022/03/11 00:14:05;;;;;;;32.90;17.13;;;;;;;;;;757936;184;634897;-67
2022/03/11 00:16:31;;;;;;;31.10;17.07;;;;;;;;;;754821;183;630255;-67
2022/03/11 00:18:56;;;;;;;41.87;16.83;;;;;;;;;;754491;186;636870;-65
2022/03/11 00:21:22;;;;;;;33.73;17.10;;;;;;;;;;758782;183;613820;-66
2022/03/11 00:23:48;;;;;;;40.63;18.70;;;;;;;;;;755987;183;623261;-67
2022/03/11 00:26:14;;;;;;;35.40;17.90;;;;;;;;;;754896;186;637637;-68
2022/03/11 00:28:40;;;;;;;35.00;17.77;;;;;;;;;;766643;183;635580;-67
2022/03/11 00:31:05;;;;;;;38.60;17.80;;;;;;;;;;766761;183;618859;-66
2022/03/11 00:33:31;;;;;;;32.63;18.07;;;;;;;;;;755953;184;626781;-67
2022/03/11 00:35:57;;;;;;;35.40;19.07;;;;;;;;;;754032;185;617100;-66
2022/03/11 00:38:23;;;;;;;53.27;22.00;;;;;;;;;;748776;184;628000;-67
2022/03/11 00:40:51;;;;;;;49.13;23.60;;;;;;;;;;751021;183;614555;-67
2022/03/11 00:43:16;;;;;;;38.60;19.53;;;;;;;;;;749076;183;632685;-68
2022/03/11 00:45:41;;;;;;;42.27;22.50;;;;;;;;;;753542;184;617301;-67
2022/03/11 00:48:06;;;;;;;40.83;21.83;;;;;;;;;;750467;183;623504;-67
2022/03/11 00:50:32;;;;;;;46.03;21.27;;;;;;;;;;749260;184;649520;-66
2022/03/11 00:52:58;;;;;;;38.50;19.30;;;;;;;;;;752064;184;631233;-67
2022/03/11 00:55:26;;;;;;;36.20;19.10;;;;;;;;;;751261;184;627278;-66
2022/03/11 00:57:50;;;;;;;42.23;20.03;;;;;;;;;;750794;184;630029;-67
2022/03/11 01:00:16;;;;;;;41.63;18.77;;;;;;;;;;767877;184;621920;-66
2022/03/11 01:02:42;;;;;;;36.53;20.27;;;;;;;;;;767213;183;615120;-67
2022/03/11 01:05:08;;;;;;;46.77;18.70;;;;;;;;;;767214;183;633311;-67
2022/03/11 01:07:34;;;;;;;51.87;22.33;;;;;;;;;;765278;183;624951;-67
2022/03/11 01:09:59;;;;;;;37.83;20.03;;;;;;;;;;774312;181;625357;-67
2022/03/11 01:12:25;;;;;;;40.57;19.90;;;;;;;;;;763612;184;634272;-67
2022/03/11 01:14:51;;;;;;;38.20;19.30;;;;;;;;;;764283;184;633859;-65
2022/03/11 01:17:17;;;;;;;48.10;24.07;;;;;;;;;;769797;184;639621;-66
2022/03/11 01:19:43;;;;;;;50.20;20.70;;;;;;;;;;764876;184;627030;-67
2022/03/11 01:22:09;;;;;;;54.27;24.70;;;;;;;;;;764457;184;635409;-66
2022/03/11 01:24:34;;;;;;;57.27;25.40;;;;;;;;;;752994;184;625838;-67
2022/03/11 01:27:00;;;;;;;41.00;21.20;;;;;;;;;;752115;185;635583;-67
2022/03/11 01:29:26;;;;;;;42.47;20.43;;;;;;;;;;759332;185;628803;-66
2022/03/11 01:31:52;;;;;;;36.40;18.07;;;;;;;;;;756689;186;641586;-65
2022/03/11 01:34:18;;;;;;;45.43;20.70;;;;;;;;;;754610;185;628923;-67
2022/03/11 01:36:44;;;;;;;43.37;22.83;;;;;;;;;;761759;183;625246;-67
2022/03/11 01:39:10;;;;;;;41.20;19.33;;;;;;;;;;754251;184;632022;-66
2022/03/11 01:41:36;;;;;;;40.10;20.90;;;;;;;;;;749448;185;629345;-66
2022/03/11 01:44:01;;;;;;;40.10;20.70;;;;;;;;;;750560;183;633191;-66
2022/03/11 01:46:28;;;;;;;34.63;18.30;;;;;;;;;;752890;184;643513;-66
2022/03/11 01:48:53;;;;;;;39.23;19.37;;;;;;;;;;761081;183;625052;-65
2022/03/11 01:51:19;;;;;;;32.67;17.87;;;;;;;;;;759154;185;627999;-66
2022/03/11 01:53:45;;;;;;;45.60;20.57;;;;;;;;;;760275;184;628798;-66
2022/03/11 01:56:10;;;;;;;34.00;20.60;;;;;;;;;;770967;183;622478;-66
2022/03/11 01:58:36;;;;;;;44.53;23.20;;;;;;;;;;764049;184;621336;-65
2022/03/11 02:01:03;;;;;;;42.83;21.50;;;;;;;;;;760539;184;625190;-66
2022/03/11 02:03:28;;;;;;;50.27;24.90;;;;;;;;;;751395;184;636966;-66
2022/03/11 02:05:54;;;;;;;54.40;26.37;;;;;;;;;;765549;183;616569;-66
2022/03/11 02:08:20;;;;;;;66.83;31.80;;;;;;;;;;757590;183;625622;-66
2022/03/11 02:10:46;;;;;;;66.93;30.37;;;;;;;;;;748002;183;625091;-66
2022/03/11 02:13:11;;;;;;;55.50;27.97;;;;;;;;;;753844;184;621104;-66
2022/03/11 02:15:37;;;;;;;54.83;30.07;;;;;;;;;;756472;185;625275;-66
2022/03/11 02:18:03;;;;;;;43.53;24.13;;;;;;;;;;752862;184;629051;-66
2022/03/11 02:20:29;;;;;;;46.53;26.80;;;;;;;;;;755644;184;614448;-66
2022/03/11 02:22:55;;;;;;;44.30;22.40;;;;;;;;;;750630;186;626664;-66
2022/03/11 02:25:21;;;;;;;46.10;26.60;;;;;;;;;;753120;186;616268;-65
2022/03/11 02:27:47;;;;;;;52.13;23.60;;;;;;;;;;759017;183;613713;-65
2022/03/11 02:30:13;;;;;;;50.35;26.42;;;;;;;;;;751335;184;624170;-65
2022/03/11 02:32:39;;;;;;;43.80;24.33;;;;;;;;;;756253;184;624223;-65
2022/03/11 02:35:04;;;;;;;41.40;25.27;;;;;;;;;;762567;184;630279;-65
2022/03/11 02:37:30;;;;;;;41.20;23.10;;;;;;;;;;769117;184;626581;-63
2022/03/11 02:39:56;;;;;;;46.53;23.67;;;;;;;;;;757987;184;643677;-65
2022/03/11 02:42:22;;;;;;;42.17;23.97;;;;;;;;;;757498;182;630446;-64
2022/03/11 02:44:48;;;;;;;46.67;24.50;;;;;;;;;;769063;183;636522;-64
2022/03/11 02:47:13;;;;;;;50.87;24.70;;;;;;;;;;767547;184;625204;-65
2022/03/11 02:49:39;;;;;;;56.50;27.00;;;;;;;;;;756751;184;632976;-65
2022/03/11 02:52:05;;;;;;;66.83;28.37;;;;;;;;;;756828;186;617995;-65
2022/03/11 02:54:31;;;;;;;48.50;25.97;;;;;;;;;;759104;185;636066;-64
2022/03/11 02:56:57;;;;;;;54.83;26.57;;;;;;;;;;755796;184;632690;-64
2022/03/11 02:59:23;;;;;;;46.93;27.50;;;;;;;;;;754506;185;621320;-64
2022/03/11 03:01:49;;;;;;;45.10;22.70;;;;;;;;;;756714;185;618648;-64
2022/03/11 03:04:15;;;;;;;48.57;25.73;;;;;;;;;;754062;185;614351;-65
2022/03/11 03:06:40;;;;;;;44.40;25.73;;;;;;;;;;749107;185;632264;-65
2022/03/11 03:09:06;;;;;;;45.87;27.27;;;;;;;;;;756015;183;626097;-63
2022/03/11 03:11:32;;;;;;;55.33;26.03;;;;;;;;;;754547;184;629895;-65
2022/03/11 03:13:58;;;;;;;42.63;25.93;;;;;;;;;;756114;184;638136;-65
2022/03/11 03:16:24;;;;;;;47.20;25.80;;;;;;;;;;760809;183;642186;-65
2022/03/11 03:18:50;;;;;;;46.27;24.73;;;;;;;;;;753741;184;628923;-64
2022/03/11 03:21:16;;;;;;;46.70;26.60;;;;;;;;;;745999;188;639489;-65
2022/03/11 03:23:41;;;;;;;45.90;25.87;;;;;;;;;;746376;184;635989;-63
2022/03/11 03:26:07;;;;;;;47.93;28.17;;;;;;;;;;749014;182;618006;-64
2022/03/11 03:28:33;;;;;;;49.17;25.93;;;;;;;;;;751013;184;627407;-63
2022/03/11 03:30:59;;;;;;;45.20;25.63;;;;;;;;;;752103;186;638370;-65
2022/03/11 03:33:25;;;;;;;51.47;29.13;;;;;;;;;;757579;186;610018;-65
2022/03/11 03:35:51;;;;;;;47.93;24.17;;;;;;;;;;766728;184;625742;-64
2022/03/11 03:38:16;;;;;;;41.20;24.77;;;;;;;;;;765381;184;625234;-65
2022/03/11 03:40:42;;;;;;;41.00;24.80;;;;;;;;;;764402;184;633050;-64
2022/03/11 03:43:08;;;;;;;47.93;26.87;;;;;;;;;;756088;184;632784;-64
2022/03/11 03:45:34;;;;;;;50.57;24.10;;;;;;;;;;756219;184;625412;-63
2022/03/11 03:48:00;;;;;;;50.47;27.53;;;;;;;;;;760576;184;684004;-64
2022/03/11 03:50:26;;;;;;;45.17;26.80;;;;;;;;;;756364;184;624373;-65
2022/03/11 03:52:51;;;;;;;46.03;25.63;;;;;;;;;;760186;185;636106;-64
2022/03/11 03:55:17;;;;;;;55.60;28.10;;;;;;;;;;753454;183;630287;-64
2022/03/11 03:57:43;;;;;;;55.07;29.80;;;;;;;;;;757565;184;624344;-64
2022/03/11 04:00:09;;;;;;;57.60;34.37;;;;;;;;;;757482;183;641347;-64
2022/03/11 04:02:37;;;;;;;60.10;33.17;;;;;;;;;;755343;183;633401;-64
2022/03/11 04:05:01;;;;;;;77.20;35.85;;;;;;;;;;758335;183;619720;-64
2022/03/11 04:07:27;;;;;;;65.28;37.40;;;;;;;;;;757057;183;631430;-64
2022/03/11 04:09:53;;;;;;;75.47;41.93;;;;;;;;;;757766;184;626750;-64
2022/03/11 04:12:19;;;;;;;75.60;41.63;;;;;;;;;;762943;183;613816;-64
2022/03/11 04:14:44;;;;;;;79.70;42.87;;;;;;;;;;754165;184;631961;-63
2022/03/11 04:17:10;;;;;;;80.23;39.70;;;;;;;;;;752508;184;615508;-63
2022/03/11 04:19:36;;;;;;;87.57;44.97;;;;;;;;;;760177;184;625381;-63
2022/03/11 04:22:02;;;;;;;80.17;41.17;;;;;;;;;;754397;183;617521;-62
2022/03/11 04:24:28;;;;;;;70.73;40.90;;;;;;;;;;758036;183;622602;-60
2022/03/11 04:26:54;;;;;;;83.90;43.20;;;;;;;;;;756250;184;626339;-61
2022/03/11 04:29:20;;;;;;;86.27;46.20;;;;;;;;;;761116;184;629187;-61
2022/03/11 04:31:46;;;;;;;68.30;38.50;;;;;;;;;;755581;184;632998;-61
2022/03/11 04:34:12;;;;;;;73.70;37.53;;;;;;;;;;760149;183;628804;-61
2022/03/11 04:36:38;;;;;;;67.30;36.17;;;;;;;;;;757325;184;633071;-62
2022/03/11 04:39:04;;;;;;;68.73;38.87;;;;;;;;;;756311;184;629375;-65
2022/03/11 04:41:29;;;;;;;72.10;39.63;;;;;;;;;;754597;184;638923;-64
2022/03/11 04:43:55;;;;;;;62.70;36.27;;;;;;;;;;764428;184;621133;-64
2022/03/11 04:46:21;;;;;;;63.47;32.90;;;;;;;;;;754491;184;628097;-64
2022/03/11 04:48:47;;;;;;;74.50;38.23;;;;;;;;;;756973;184;624123;-64
2022/03/11 04:51:13;;;;;;;79.40;39.73;;;;;;;;;;764480;184;634645;-63
2022/03/11 04:53:38;;;;;;;69.20;35.83;;;;;;;;;;759918;184;614752;-64
2022/03/11 04:56:04;;;;;;;60.90;37.70;;;;;;;;;;755323;184;633313;-64
2022/03/11 04:58:30;;;;;;;68.07;37.97;;;;;;;;;;749316;187;633601;-68
2022/03/11 05:00:56;;;;;;;73.00;39.47;;;;;;;;;;755259;182;630803;-64
2022/03/11 05:03:22;;;;;;;64.10;35.53;;;;;;;;;;757837;183;634624;-64
2022/03/11 05:05:48;;;;;;;67.47;37.87;;;;;;;;;;758573;184;629742;-63
2022/03/11 05:08:13;;;;;;;63.13;34.20;;;;;;;;;;760777;183;646328;-64
2022/03/11 05:10:39;;;;;;;56.60;33.80;;;;;;;;;;756112;183;635383;-64
2022/03/11 05:13:05;;;;;;;63.47;35.80;;;;;;;;;;756405;183;637730;-65
2022/03/11 05:15:31;;;;;;;63.13;34.57;;;;;;;;;;756170;183;635991;-63
2022/03/11 05:17:57;;;;;;;66.57;39.40;;;;;;;;;;755762;184;625499;-63
2022/03/11 05:20:23;;;;;;;66.50;34.30;;;;;;;;;;757725;183;629157;-64
2022/03/11 05:22:50;;;;;;;62.67;36.23;;;;;;;;;;752856;184;636441;-64
2022/03/11 05:25:14;;;;;;;67.57;36.23;;;;;;;;;;759074;184;625933;-63
2022/03/11 05:27:40;;;;;;;62.87;35.10;;;;;;;;;;754826;184;639665;-63
2022/03/11 05:30:07;;;;;;;65.57;36.77;;;;;;;;;;750723;184;619846;-63
2022/03/11 05:32:33;;;;;;;58.03;34.57;;;;;;;;;;755698;183;637017;-66
2022/03/11 05:34:59;;;;;;;63.70;36.03;;;;;;;;;;757228;184;621504;-63
2022/03/11 05:37:24;;;;;;;54.10;33.37;;;;;;;;;;757162;183;743782;-63
2022/03/11 05:39:50;;;;;;;72.03;37.90;;;;;;;;;;760809;183;629768;-62
2022/03/11 05:42:16;;;;;;;58.90;36.23;;;;;;;;;;755708;184;634568;-63
2022/03/11 05:44:42;;;;;;;69.60;39.60;;;;;;;;;;754154;184;706075;-64
2022/03/11 05:47:09;;;;;;;66.57;37.30;;;;;;;;;;754988;184;635150;-64
2022/03/11 05:49:33;;;;;;;69.53;40.30;;;;;;;;;;760114;184;620529;-63
2022/03/11 05:51:59;;;;;;;78.47;39.73;;;;;;;;;;755041;184;630818;-62
2022/03/11 05:54:25;;;;;;;56.57;35.07;;;;;;;;;;755981;184;632573;-64
2022/03/11 05:56:54;;;;;;;71.47;40.13;;;;;;;;;;760234;183;629843;-63
2022/03/11 05:59:17;;;;;;;66.97;38.00;;;;;;;;;;755634;184;642415;-63
2022/03/11 06:01:44;;;;;;;82.20;39.57;;;;;;;;;;757562;184;634386;-62
2022/03/11 06:04:09;;;;;;;68.97;41.10;;;;;;;;;;761205;184;615597;-64
2022/03/11 06:06:37;;;;;;;82.37;41.23;;;;;;;;;;754209;184;629416;-63
2022/03/11 06:09:01;;;;;;;85.13;44.97;;;;;;;;;;754985;184;623816;-64
2022/03/11 06:11:28;;;;;;;82.60;42.43;;;;;;;;;;752758;184;636100;-62
2022/03/11 06:13:53;;;;;;;78.90;43.67;;;;;;;;;;745787;188;636108;-62
2022/03/11 06:16:21;;;;;;;81.60;41.07;;;;;;;;;;747993;183;820142;-63
2022/03/11 06:18:46;;;;;;;97.83;54.23;;;;;;;;;;752812;183;622827;-63
2022/03/11 06:21:12;;;;;;;96.13;50.80;;;;;;;;;;757349;186;616839;-63
2022/03/11 06:23:38;;;;;;;118.23;70.00;;;;;;;;;;754014;186;634066;-63
2022/03/11 06:26:04;;;;;;;85.37;46.33;;;;;;;;;;758241;183;632176;-62
2022/03/11 06:28:30;;;;;;;127.60;54.70;;;;;;;;;;757025;185;633429;-63
2022/03/11 06:30:56;;;;;;;134.33;76.20;;;;;;;;;;755125;184;622932;-63
2022/03/11 06:33:21;;;;;;;189.50;92.90;;;;;;;;;;764441;184;614179;-64
2022/03/11 06:35:47;;;;;;;90.33;50.67;;;;;;;;;;763911;184;633514;-62
2022/03/11 06:38:13;;;;;;;83.87;44.80;;;;;;;;;;756690;183;640113;-63
2022/03/11 06:40:39;;;;;;;91.33;46.30;;;;;;;;;;753226;183;634412;-63
2022/03/11 06:43:05;;;;;;;87.83;47.60;;;;;;;;;;765966;184;647247;-65
2022/03/11 06:45:31;;;;;;;71.83;36.93;;;;;;;;;;764745;183;628340;-64
2022/03/11 06:47:56;;;;;;;69.33;36.30;;;;;;;;;;754470;183;625735;-63
2022/03/11 06:50:22;;;;;;;93.10;46.67;;;;;;;;;;754377;185;628426;-64
2022/03/11 06:52:48;;;;;;;102.50;49.77;;;;;;;;;;756122;185;633797;-64
2022/03/11 06:55:14;;;;;;;95.30;46.53;;;;;;;;;;751526;184;624224;-64
2022/03/11 06:57:40;;;;;;;125.47;49.50;;;;;;;;;;751303;186;633658;-64
2022/03/11 07:00:07;;;;;;;59.97;33.27;;;;;;;;;;762035;184;630065;-64
2022/03/11 07:02:34;;;;;;;69.67;39.93;;;;;;;;;;770805;184;617160;-64
2022/03/11 07:04:59;;;;;;;57.20;31.20;;;;;;;;;;764066;184;634298;-63
2022/03/11 07:07:28;;;;;;;41.60;24.70;;;;;;;;;;747772;184;620419;-65
2022/03/11 07:09:51;;;;;;;37.87;19.57;;;;;;;;;;752436;184;625717;-64
2022/03/11 07:12:16;;;;;;;55.40;27.50;;;;;;;;;;749796;187;629745;-64
2022/03/11 07:14:43;;;;;;;60.50;24.67;;;;;;;;;;746884;184;634218;-65
2022/03/11 07:17:08;;;;;;;48.00;26.30;;;;;;;;;;752924;184;629662;-65
2022/03/11 07:19:34;;;;;;;42.40;24.67;;;;;;;;;;752130;184;624818;-65
2022/03/11 07:22:00;;;;;;;43.50;24.13;;;;;;;;;;752310;184;636035;-65
2022/03/11 07:24:25;;;;;;;51.67;24.27;;;;;;;;;;758170;183;630624;-65
2022/03/11 07:26:51;;;;;;;33.17;19.83;;;;;;;;;;753714;184;617589;-65
2022/03/11 07:29:17;;;;;;;47.78;24.60;;;;;;;;;;752419;186;635092;-62
2022/03/11 07:31:43;;;;;;;35.70;19.23;;;;;;;;;;756930;184;631645;-64
2022/03/11 07:34:09;;;;;;;37.87;19.77;;;;;;;;;;762407;185;611159;-64
2022/03/11 07:36:35;;;;;;;42.87;23.20;;;;;;;;;;756398;184;629594;-65
2022/03/11 07:39:01;;;;;;;42.30;24.13;;;;;;;;;;754340;184;633662;-65
2022/03/11 07:41:26;;;;;;;41.67;22.63;;;;;;;;;;754582;184;636242;-64
2022/03/11 07:43:52;;;;;;;50.23;26.90;;;;;;;;;;756880;184;631646;-65
2022/03/11 07:46:19;;;;;;;43.40;23.77;;;;;;;;;;753620;184;629882;-65
2022/03/11 07:48:44;;;;;;;64.07;30.37;;;;;;;;;;759226;184;630430;-64
2022/03/11 07:51:10;;;;;;;32.90;20.00;;;;;;;;;;756098;184;633388;-65
2022/03/11 07:53:36;;;;;;;58.07;26.70;;;;;;;;;;757378;184;664258;-66
2022/03/11 07:56:03;;;;;;;88.27;47.10;;;;;;;;;;755948;183;632699;-65
2022/03/11 07:58:27;;;;;;;41.40;23.50;;;;;;;;;;763179;181;676047;-66
2022/03/11 08:00:53;;;;;;;40.33;20.80;;;;;;;;;;758383;184;622687;-65
2022/03/11 08:03:19;;;;;;;125.70;49.03;;;;;;;;;;759260;184;640055;-66
2022/03/11 08:05:45;;;;;;;121.27;46.93;;;;;;;;;;755248;184;633309;-66
2022/03/11 08:08:11;;;;;;;68.60;28.73;;;;;;;;;;749795;183;697723;-66
2022/03/11 08:10:37;;;;;;;61.83;27.97;;;;;;;;;;749297;183;624675;-67
2022/03/11 08:13:03;;;;;;;42.10;20.33;;;;;;;;;;751832;184;638130;-67
2022/03/11 08:15:28;;;;;;;49.27;24.23;;;;;;;;;;749946;184;641727;-67
2022/03/11 08:17:54;;;;;;;59.63;25.73;;;;;;;;;;749400;183;681764;-66
2022/03/11 08:20:20;;;;;;;68.27;26.70;;;;;;;;;;751883;184;634833;-67
2022/03/11 08:22:47;;;;;;;34.13;17.27;;;;;;;;;;747933;184;627109;-67
2022/03/11 08:25:12;;;;;;;58.00;25.20;;;;;;;;;;749724;184;626809;-68
2022/03/11 08:27:38;;;;;;;116.23;44.40;;;;;;;;;;755796;185;618132;-66
2022/03/11 08:30:04;;;;;;;34.30;13.97;;;;;;;;;;755311;184;640568;-68
2022/03/11 08:32:30;;;;;;;38.77;17.37;;;;;;;;;;751001;186;626935;-67
2022/03/11 08:34:55;;;;;;;41.50;20.00;;;;;;;;;;756387;183;630617;-67
2022/03/11 08:37:21;;;;;;;41.67;17.37;;;;;;;;;;759723;183;630083;-67
2022/03/11 08:39:47;;;;;;;30.13;14.70;;;;;;;;;;754440;183;635115;-67
2022/03/11 08:42:14;;;;;;;70.40;25.70;;;;;;;;;;754550;183;649685;-67
2022/03/11 08:44:40;;;;;;;209.30;62.03;;;;;;;;;;762418;183;632980;-67
2022/03/11 08:47:06;;;;;;;84.00;34.00;;;;;;;;;;757086;183;634274;-66
2022/03/11 08:49:33;;;;;;;23.87;12.30;;;;;;;;;;753593;184;628910;-66
2022/03/11 08:51:58;;;;;;;31.27;13.40;;;;;;;;;;755649;184;634967;-66
2022/03/11 08:54:24;;;;;;;18.27;11.87;;;;;;;;;;758907;184;646135;-67
2022/03/11 08:56:52;;;;;;;24.10;11.40;;;;;;;;;;754056;184;639762;-67
2022/03/11 08:59:16;;;;;;;25.73;11.88;;;;;;;;;;755588;184;637948;-67
2022/03/11 09:01:42;;;;;;;28.80;13.57;;;;;;;;;;761650;184;630541;-67
2022/03/11 09:04:08;;;;;;;16.43;9.23;;;;;;;;;;754815;184;664768;-68
2022/03/11 09:06:34;;;;;;;20.00;11.10;;;;;;;;;;758948;184;629619;-67
2022/03/11 09:08:59;;;;;;;19.47;10.83;;;;;;;;;;758800;184;641921;-67
2022/03/11 09:11:25;;;;;;;29.27;11.87;;;;;;;;;;750839;184;619037;-68
2022/03/11 09:13:51;;;;;;;16.30;9.93;;;;;;;;;;759056;184;633078;-68
2022/03/11 09:16:17;;;;;;;23.25;13.35;;;;;;;;;;764327;184;618980;-69
2022/03/11 09:18:43;;;;;;;21.37;11.40;;;;;;;;;;765495;183;627273;-68
2022/03/11 09:21:09;;;;;;;24.17;12.60;;;;;;;;;;751644;184;630667;-68
2022/03/11 09:23:34;;;;;;;21.30;11.87;;;;;;;;;;753681;184;627322;-68
2022/03/11 09:26:00;;;;;;;14.40;8.97;;;;;;;;;;759063;184;644575;-68
2022/03/11 09:28:26;;;;;;;21.63;12.00;;;;;;;;;;754324;184;639641;-69
2022/03/11 09:30:52;;;;;;;19.87;13.47;;;;;;;;;;756569;184;616278;-69
2022/03/11 09:33:18;;;;;;;21.90;11.80;;;;;;;;;;758283;183;629643;-69
2022/03/11 09:35:44;;;;;;;20.90;12.10;;;;;;;;;;754824;184;628448;-69
2022/03/11 09:38:10;;;;;;;25.77;12.27;;;;;;;;;;754766;184;624933;-68
2022/03/11 09:40:35;;;;;;;20.23;10.30;;;;;;;;;;760950;184;628562;-69
2022/03/11 09:43:01;;;;;;;23.23;12.20;;;;;;;;;;751328;184;639808;-69
2022/03/11 09:45:27;;;;;;;30.70;13.37;;;;;;;;;;751882;184;637369;-68
2022/03/11 09:47:53;;;;;;;19.50;10.80;;;;;;;;;;751525;184;639435;-68
2022/03/11 09:50:19;;;;;;;24.20;12.00;;;;;;;;;;753586;185;794049;-69
2022/03/11 09:52:45;;;;;;;23.43;12.03;;;;;;;;;;757224;183;619922;-69
2022/03/11 09:55:11;;;;;;;21.90;11.20;;;;;;;;;;752343;183;616034;-69
2022/03/11 09:57:36;;;;;;;23.90;12.27;;;;;;;;;;757737;186;622799;-69
2022/03/11 10:00:04;;;;;;;22.00;12.87;;;;;;;;;;754269;183;640927;-68
2022/03/11 10:02:28;;;;;;;20.10;11.50;;;;;;;;;;754931;183;637110;-69
2022/03/11 10:04:56;;;;;;;26.53;12.77;;;;;;;;;;768748;184;617373;-67
2022/03/11 10:07:21;;;;;;;24.13;12.60;;;;;;;;;;761059;184;626772;-68
2022/03/11 10:09:47;;;;;;;22.80;14.70;;;;;;;;;;759358;185;646020;-69
2022/03/11 10:12:12;;;;;;;39.73;17.63;;;;;;;;;;753343;184;629255;-69
2022/03/11 10:14:39;;;;;;;25.00;16.40;;;;;;;;;;755880;185;622782;-69
2022/03/11 10:17:04;;;;;;;24.40;11.93;;;;;;;;;;760268;183;613484;-70
2022/03/11 10:19:30;;;;;;;26.47;14.47;;;;;;;;;;755796;184;638816;-69
2022/03/11 10:21:56;;;;;;;29.60;15.83;;;;;;;;;;758282;184;633027;-67
2022/03/11 10:24:22;;;;;;;24.93;13.13;;;;;;;;;;753551;184;629163;-69
2022/03/11 10:26:50;;;;;;;21.83;10.57;;;;;;;;;;753486;183;655771;-69
2022/03/11 10:29:17;;;;;;;23.50;16.80;;;;;;;;;;748938;185;630040;-68
2022/03/11 10:31:43;;;;;;;19.27;11.37;;;;;;;;;;746336;185;655950;-69
2022/03/11 10:34:12;;;;;;;18.60;8.63;;;;;;;;;;758513;185;630504;-67
2022/03/11 10:36:39;;;;;;;21.83;12.07;;;;;;;;;;754486;185;644178;-69
2022/03/11 10:39:10;;;;;;;25.73;14.77;;;;;;;;;;756083;186;633314;-69
2022/03/11 10:41:36;;;;;;;21.73;11.30;;;;;;;;;;757516;183;626451;-69
2022/03/11 10:44:02;;;;;;;25.43;12.80;;;;;;;;;;763411;184;643562;-69
2022/03/11 10:46:28;;;;;;;26.67;12.23;;;;;;;;;;761594;184;631496;-68
2022/03/11 10:48:55;;;;;;;19.27;10.40;;;;;;;;;;755499;184;632778;-68
2022/03/11 10:51:24;;;;;;;23.37;12.20;;;;;;;;;;755154;184;634909;-68
2022/03/11 10:53:50;;;;;;;30.50;13.57;;;;;;;;;;762220;184;617396;-68
2022/03/11 10:56:15;;;;;;;24.67;12.93;;;;;;;;;;756898;185;636760;-70
2022/03/11 10:58:41;;;;;;;16.23;11.40;;;;;;;;;;750809;184;708504;-69
2022/03/11 11:01:08;;;;;;;23.03;12.87;;;;;;;;;;758704;183;638680;-69
2022/03/11 11:03:34;;;;;;;19.37;10.73;;;;;;;;;;762355;184;626947;-69
2022/03/11 11:05:59;;;;;;;19.97;10.77;;;;;;;;;;758632;183;636753;-68
2022/03/11 11:08:25;;;;;;;19.20;10.27;;;;;;;;;;754837;183;633437;-69
2022/03/11 11:10:51;;;;;;;18.03;10.53;;;;;;;;;;753623;185;629280;-69
2022/03/11 11:13:17;;;;;;;15.57;8.27;;;;;;;;;;757754;183;622495;-68
2022/03/11 11:15:43;;;;;;;14.37;9.17;;;;;;;;;;760417;183;624477;-68
2022/03/11 11:18:08;;;;;;;16.50;9.70;;;;;;;;;;755730;184;627977;-69
2022/03/11 11:20:38;;;;;;;14.00;8.23;;;;;;;;;;756393;187;636017;-68
2022/03/11 11:23:04;;;;;;;20.00;11.10;;;;;;;;;;752412;185;635994;-69
2022/03/11 11:25:30;;;;;;;19.50;10.50;;;;;;;;;;751666;186;633344;-68
2022/03/11 11:27:57;;;;;;;16.93;10.60;;;;;;;;;;760747;184;624113;-69
2022/03/11 11:30:22;;;;;;;14.83;10.47;;;;;;;;;;772988;179;616687;-70
2022/03/11 11:32:47;;;;;;;20.73;11.17;;;;;;;;;;767838;183;629175;-69
2022/03/11 11:35:22;;;;;;;20.20;11.20;;;;;;;;;;764948;184;633400;-69
2022/03/11 11:37:48;;;;;;;12.23;7.77;;;;;;;;;;767765;184;627808;-68
2022/03/11 11:40:18;;;;;;;17.83;8.80;;;;;;;;;;755896;184;690307;-68
2022/03/11 11:42:59;;;;;;;15.30;9.00;;;;;;;;;;750256;184;635128;-69
2022/03/11 11:45:24;;;;;;;13.70;6.97;;;;;;;;;;745565;183;619270;-71
2022/03/11 11:47:50;;;;;;;18.67;8.70;;;;;;;;;;750341;184;623091;-69
2022/03/11 11:50:17;;;;;;;14.53;8.43;;;;;;;;;;757511;184;623670;-69
2022/03/11 11:52:42;;;;;;;13.07;7.87;;;;;;;;;;754960;185;626616;-69
2022/03/11 11:55:11;;;;;;;25.70;14.50;;;;;;;;;;756067;184;629851;-69
2022/03/11 11:57:37;;;;;;;13.50;8.73;;;;;;;;;;757558;184;614160;-70
2022/03/11 12:00:03;;;;;;;19.07;9.57;;;;;;;;;;761008;183;632022;-71
2022/03/11 12:02:31;;;;;;;19.80;10.63;;;;;;;;;;758124;184;627199;-70
2022/03/11 12:04:54;;;;;;;17.53;10.60;;;;;;;;;;753356;184;640744;-69
2022/03/11 12:07:22;;;;;;;18.83;10.43;;;;;;;;;;758906;183;668694;-69
2022/03/11 12:09:47;;;;;;;12.37;8.30;;;;;;;;;;757138;184;633001;-69
2022/03/11 12:12:17;;;;;;;16.92;10.32;;;;;;;;;;755549;184;629202;-69
2022/03/11 12:14:49;;;;;;;20.47;12.20;;;;;;;;;;764953;183;643792;-69
2022/03/11 12:17:15;;;;;;;17.27;10.93;;;;;;;;;;761313;183;628256;-68
2022/03/11 12:19:41;;;;;;;21.40;9.67;;;;;;;;;;758920;183;628610;-68
2022/03/11 12:22:12;;;;;;;17.90;9.17;;;;;;;;;;753495;183;633351;-68
2022/03/11 12:24:39;;;;;;;23.30;9.27;;;;;;;;;;760092;184;627289;-68
2022/03/11 12:27:04;;;;;;;23.27;9.30;;;;;;;;;;757874;184;635541;-69
2022/03/11 12:29:30;;;;;;;14.03;7.67;;;;;;;;;;757653;184;636758;-68
2022/03/11 12:31:56;;;;;;;20.70;8.70;;;;;;;;;;758875;184;618771;-68
2022/03/11 12:34:22;;;;;;;15.57;9.87;;;;;;;;;;756016;185;616556;-68
2022/03/11 12:36:47;;;;;;;16.93;9.63;;;;;;;;;;755815;184;624802;-69
2022/03/11 12:39:13;;;;;;;20.77;11.10;;;;;;;;;;753287;185;617937;-68
2022/03/11 12:41:39;;;;;;;15.43;9.80;;;;;;;;;;756311;185;613788;-70
2022/03/11 12:44:10;;;;;;;19.63;9.63;;;;;;;;;;755448;184;636261;-68
2022/03/11 12:46:31;;;;;;;15.97;8.80;;;;;;;;;;754277;185;676798;-68
2022/03/11 12:48:57;;;;;;;13.77;9.17;;;;;;;;;;757352;184;645003;-69
2022/03/11 12:51:23;;;;;;;50.07;25.00;;;;;;;;;;756242;184;618507;-69
2022/03/11 12:53:49;;;;;;;21.63;10.37;;;;;;;;;;755078;184;630489;-71
2022/03/11 12:56:15;;;;;;;15.20;8.60;;;;;;;;;;758533;183;615077;-68
2022/03/11 12:58:40;;;;;;;22.02;9.25;;;;;;;;;;755549;184;629033;-68
2022/03/11 13:01:07;;;;;;;16.20;9.17;;;;;;;;;;758086;184;648099;-69
2022/03/11 13:03:33;;;;;;;17.40;11.50;;;;;;;;;;755027;184;644698;-69
2022/03/11 13:05:59;;;;;;;20.93;9.33;;;;;;;;;;754206;184;616896;-67
2022/03/11 13:08:25;;;;;;;20.53;9.50;;;;;;;;;;755343;184;629830;-69
2022/03/11 13:10:50;;;;;;;21.00;11.83;;;;;;;;;;756214;184;645341;-68
2022/03/11 13:13:16;;;;;;;30.17;16.43;;;;;;;;;;760741;184;642156;-68
2022/03/11 13:15:43;;;;;;;13.90;7.17;;;;;;;;;;757453;184;635953;-68
2022/03/11 13:18:08;;;;;;;20.40;11.20;;;;;;;;;;754926;184;612653;-68
2022/03/11 13:20:35;;;;;;;22.17;11.03;;;;;;;;;;761504;184;614585;-67
2022/03/11 13:23:01;;;;;;;23.53;10.87;;;;;;;;;;757358;183;627054;-68
2022/03/11 13:25:26;;;;;;;20.00;10.07;;;;;;;;;;755459;183;640362;-69
2022/03/11 13:27:52;;;;;;;31.63;9.23;;;;;;;;;;757775;183;625241;-68
2022/03/11 13:30:24;;;;;;;22.57;11.43;;;;;;;;;;769153;179;623488;-68
2022/03/11 13:32:51;;;;;;;27.60;14.00;;;;;;;;;;753934;183;617155;-67
2022/03/11 13:35:16;;;;;;;28.43;15.10;;;;;;;;;;754339;184;641746;-67
2022/03/11 13:37:41;;;;;;;18.10;8.13;;;;;;;;;;755881;184;625368;-68
2022/03/11 13:40:07;;;;;;;42.27;23.50;;;;;;;;;;759873;183;634232;-68
2022/03/11 13:42:33;;;;;;;25.03;10.93;;;;;;;;;;755671;184;683474;-67
2022/03/11 13:45:03;;;;;;;22.92;14.20;;;;;;;;;;756497;185;636266;-68
2022/03/11 13:47:29;;;;;;;26.63;17.50;;;;;;;;;;754609;183;631215;-70
2022/03/11 13:49:55;;;;;;;18.03;9.17;;;;;;;;;;755672;184;618264;-68
2022/03/11 13:52:21;;;;;;;13.87;9.13;;;;;;;;;;755019;184;648392;-68
2022/03/11 13:54:47;;;;;;;19.30;8.73;;;;;;;;;;759248;184;629982;-69
2022/03/11 13:57:25;;;;;;;17.30;11.17;;;;;;;;;;750537;184;640811;-67
2022/03/11 13:59:52;;;;;;;21.20;8.97;;;;;;;;;;753437;184;624803;-68